createdAt,value
2017-12-02T00:00:14.294Z,1.82
2017-12-02T00:02:45.365Z,1.86
2017-12-02T00:05:16.351Z,1.92
2017-12-02T00:10:50.480Z,1.87
2017-12-02T00:13:20.085Z,1.84
2017-12-02T00:15:49.408Z,1.92
2017-12-02T00:18:17.882Z,1.85
2017-12-02T00:20:46.337Z,1.93
2017-12-02T00:23:14.800Z,1.92
2017-12-02T00:25:43.196Z,1.95
2017-12-02T00:28:11.705Z,2.04
2017-12-02T00:30:40.081Z,2.05
2017-12-02T00:33:08.512Z,2.03
2017-12-02T00:35:36.969Z,2.09
2017-12-02T00:38:06.124Z,2.17
2017-12-02T00:40:34.613Z,2.19
2017-12-02T00:43:03.029Z,2.05
2017-12-02T00:45:31.489Z,2.14
2017-12-02T00:47:59.929Z,2.13
2017-12-02T00:50:29.272Z,2.12
2017-12-02T00:52:57.656Z,2.14
2017-12-02T00:55:26.476Z,2.20
2017-12-02T00:57:55.640Z,2.31
2017-12-02T01:00:24.488Z,2.29
2017-12-02T01:02:52.969Z,2.35
2017-12-02T01:05:21.384Z,2.35
2017-12-02T01:07:49.809Z,2.27
2017-12-02T01:10:18.319Z,2.28
2017-12-02T01:12:47.489Z,2.29
2017-12-02T01:15:17.068Z,2.30
2017-12-02T01:17:45.520Z,2.33
2017-12-02T01:20:14.348Z,2.35
2017-12-02T01:22:42.792Z,2.36
2017-12-02T01:25:12.028Z,2.40
2017-12-02T01:27:40.824Z,2.38
2017-12-02T01:30:09.296Z,2.24
2017-12-02T01:32:37.688Z,2.23
2017-12-02T01:35:07.302Z,2.00
2017-12-02T01:37:35.765Z,2.02
2017-12-02T01:40:04.197Z,2.06
2017-12-02T01:42:32.616Z,2.14
2017-12-02T01:45:02.400Z,2.22
2017-12-02T01:47:30.812Z,2.21
2017-12-02T01:49:59.634Z,2.15
2017-12-02T01:52:28.020Z,2.20
2017-12-02T01:54:56.485Z,2.23
2017-12-02T01:57:25.465Z,2.27
2017-12-02T01:59:54.706Z,2.33
2017-12-02T02:02:23.252Z,2.39
2017-12-02T02:04:51.694Z,2.39
2017-12-02T02:07:20.096Z,2.43
2017-12-02T02:09:48.595Z,2.37
2017-12-02T02:12:17.025Z,2.44
2017-12-02T02:14:46.248Z,2.48
2017-12-02T02:17:14.951Z,2.56
2017-12-02T02:19:43.371Z,2.57
2017-12-02T02:22:13.048Z,2.63
2017-12-02T02:24:41.988Z,2.58
2017-12-02T02:27:10.416Z,2.52
2017-12-02T02:29:38.864Z,2.50
2017-12-02T02:32:07.276Z,2.50
2017-12-02T02:34:35.682Z,2.55
2017-12-02T02:37:04.177Z,2.60
2017-12-02T02:39:32.599Z,2.61
2017-12-02T02:42:00.999Z,2.62
2017-12-02T02:44:30.137Z,2.55
2017-12-02T02:46:58.506Z,2.48
2017-12-02T02:49:26.916Z,2.52
2017-12-02T02:51:56.034Z,2.55
2017-12-02T02:54:24.461Z,2.56
2017-12-02T02:56:52.855Z,2.50
2017-12-02T02:59:21.615Z,2.50
2017-12-02T03:01:50.044Z,2.49
2017-12-02T03:04:18.431Z,2.46
2017-12-02T03:06:47.232Z,2.48
2017-12-02T03:09:15.628Z,2.53
2017-12-02T03:11:44.835Z,2.64
2017-12-02T03:14:14.035Z,2.61
2017-12-02T03:16:42.419Z,2.61
2017-12-02T03:19:10.828Z,2.63
2017-12-02T03:21:39.175Z,2.59
2017-12-02T03:24:07.554Z,2.54
2017-12-02T03:26:35.976Z,2.53
2017-12-02T03:29:04.339Z,2.45
2017-12-02T03:31:33.131Z,2.50
2017-12-02T03:34:01.551Z,2.54
2017-12-02T03:36:29.951Z,2.57
2017-12-02T03:38:58.327Z,2.61
2017-12-02T03:41:26.755Z,2.65
2017-12-02T03:43:55.187Z,2.60
2017-12-02T03:46:24.347Z,2.53
2017-12-02T03:48:53.139Z,2.55
2017-12-02T03:51:22.675Z,2.61
2017-12-02T03:53:51.831Z,2.60
2017-12-02T03:56:20.251Z,2.66
2017-12-02T03:58:48.647Z,2.63
2017-12-02T04:01:17.026Z,2.69
2017-12-02T04:03:45.439Z,2.72
2017-12-02T04:06:13.872Z,2.67
2017-12-02T04:08:42.291Z,2.61
2017-12-02T04:11:10.655Z,2.60
2017-12-02T04:13:39.819Z,2.65
2017-12-02T04:16:08.959Z,2.66
2017-12-02T04:18:37.339Z,2.66
2017-12-02T04:21:06.540Z,2.67
2017-12-02T04:23:34.911Z,2.63
2017-12-02T04:26:04.075Z,2.69
2017-12-02T04:28:32.535Z,2.70
2017-12-02T04:31:01.679Z,2.66
2017-12-02T04:33:30.103Z,2.57
2017-12-02T04:35:58.531Z,2.58
2017-12-02T04:38:26.899Z,2.61
2017-12-02T04:40:55.322Z,2.63
2017-12-02T04:43:24.471Z,2.65
2017-12-02T04:45:52.886Z,2.56
2017-12-02T04:48:21.296Z,2.45
2017-12-02T04:50:49.654Z,2.39
2017-12-02T04:53:18.067Z,2.43
2017-12-02T04:55:46.835Z,2.49
2017-12-02T04:58:15.255Z,2.58
2017-12-02T05:00:43.662Z,2.63
2017-12-02T05:03:12.054Z,2.69
2017-12-02T05:05:40.471Z,2.72
2017-12-02T05:08:08.887Z,2.73
2017-12-02T05:10:38.103Z,2.66
2017-12-02T05:13:07.302Z,2.67
2017-12-02T05:15:35.738Z,2.73
2017-12-02T05:18:04.163Z,2.79
2017-12-02T05:20:32.563Z,2.78
2017-12-02T05:23:00.978Z,2.80
2017-12-02T05:25:29.835Z,2.79
2017-12-02T05:27:58.207Z,2.80
2017-12-02T05:30:26.578Z,2.74
2017-12-02T05:32:55.066Z,2.59
2017-12-02T05:35:24.612Z,2.47
2017-12-02T05:37:53.012Z,2.60
2017-12-02T05:40:22.326Z,2.68
2017-12-02T05:42:51.542Z,2.79
2017-12-02T05:45:20.006Z,2.86
2017-12-02T05:47:50.267Z,2.77
2017-12-02T05:50:18.666Z,2.74
2017-12-02T05:52:47.070Z,2.66
2017-12-02T05:55:15.874Z,2.65
2017-12-02T05:57:44.290Z,2.64
2017-12-02T06:00:12.700Z,2.62
2017-12-02T06:02:41.070Z,2.63
2017-12-02T06:05:09.890Z,2.61
2017-12-02T06:07:38.273Z,2.57
2017-12-02T06:10:06.754Z,2.61
2017-12-02T06:12:35.130Z,2.62
2017-12-02T06:15:03.503Z,2.58
2017-12-02T06:17:32.620Z,2.64
2017-12-02T06:20:01.002Z,2.63
2017-12-02T06:22:30.135Z,2.69
2017-12-02T06:24:58.550Z,2.49
2017-12-02T06:27:27.389Z,2.57
2017-12-02T06:29:55.782Z,2.60
2017-12-02T06:32:24.930Z,2.59
2017-12-02T06:34:53.319Z,2.36
2017-12-02T06:37:24.045Z,2.36
2017-12-02T06:39:53.594Z,2.46
2017-12-02T06:42:21.978Z,2.37
2017-12-02T06:44:50.394Z,2.48
2017-12-02T06:47:18.817Z,2.53
2017-12-02T06:49:47.922Z,2.51
2017-12-02T06:52:16.394Z,2.65
2017-12-02T06:54:45.149Z,2.70
2017-12-02T06:57:13.526Z,2.65
2017-12-02T06:59:41.942Z,2.69
2017-12-02T07:02:10.766Z,2.68
2017-12-02T07:04:39.173Z,2.71
2017-12-02T07:07:07.579Z,2.74
2017-12-02T07:09:35.918Z,2.57
2017-12-02T07:12:05.034Z,2.59
2017-12-02T07:14:33.465Z,2.68
2017-12-02T07:17:02.253Z,2.76
2017-12-02T07:19:31.541Z,2.76
2017-12-02T07:22:00.423Z,2.79
2017-12-02T07:24:29.453Z,2.78
2017-12-02T07:26:58.632Z,2.83
2017-12-02T07:29:27.773Z,2.87
2017-12-02T07:31:56.303Z,2.90
2017-12-02T07:34:24.649Z,2.92
2017-12-02T07:36:53.465Z,2.94
2017-12-02T07:39:22.628Z,3.00
2017-12-02T07:41:50.965Z,3.00
2017-12-02T07:44:20.089Z,3.00
2017-12-02T07:46:49.837Z,2.95
2017-12-02T07:49:18.217Z,3.02
2017-12-02T07:51:47.402Z,3.11
2017-12-02T07:54:16.517Z,3.13
2017-12-02T07:56:46.418Z,3.18
2017-12-02T07:59:16.340Z,3.20
2017-12-02T08:01:44.953Z,3.23
2017-12-02T08:04:14.113Z,3.14
2017-12-02T08:06:42.474Z,3.12
2017-12-02T08:09:10.875Z,3.21
2017-12-02T08:11:39.249Z,3.22
2017-12-02T08:14:07.706Z,3.19
2017-12-02T08:16:36.856Z,3.25
2017-12-02T08:19:06.024Z,3.27
2017-12-02T08:21:34.829Z,3.28
2017-12-02T08:24:03.961Z,3.35
2017-12-02T08:26:32.389Z,3.33
2017-12-02T08:29:01.123Z,3.29
2017-12-02T08:31:29.453Z,3.19
2017-12-02T08:33:58.593Z,3.31
2017-12-02T08:36:27.377Z,3.40
2017-12-02T08:38:55.765Z,3.46
2017-12-02T08:41:25.494Z,3.52
2017-12-02T08:43:53.905Z,3.63
2017-12-02T08:46:23.065Z,3.65
2017-12-02T08:48:53.034Z,3.62
2017-12-02T08:51:21.445Z,3.63
2017-12-02T08:53:49.796Z,3.70
2017-12-02T08:56:18.197Z,3.79
2017-12-02T08:58:46.580Z,3.83
2017-12-02T09:01:14.947Z,3.84
2017-12-02T09:03:43.354Z,3.90
2017-12-02T09:06:11.716Z,4.01
2017-12-02T09:08:40.514Z,3.89
2017-12-02T09:11:08.893Z,3.56
2017-12-02T09:13:37.320Z,3.79
2017-12-02T09:16:05.776Z,3.96
2017-12-02T09:18:34.180Z,3.95
2017-12-02T09:21:02.568Z,3.97
2017-12-02T09:23:30.983Z,3.88
2017-12-02T09:25:59.345Z,3.91
2017-12-02T09:28:27.853Z,3.75
2017-12-02T09:30:56.228Z,3.60
2017-12-02T09:33:25.361Z,3.61
2017-12-02T09:35:53.741Z,3.61
2017-12-02T09:38:22.117Z,3.67
2017-12-02T09:40:52.024Z,3.52
2017-12-02T09:43:20.817Z,3.80
2017-12-02T09:45:50.181Z,4.05
2017-12-02T09:48:19.684Z,4.14
2017-12-02T09:50:48.820Z,4.05
2017-12-02T09:53:17.220Z,4.16
2017-12-02T09:55:46.390Z,4.21
2017-12-02T09:58:14.744Z,4.18
2017-12-02T10:00:43.168Z,4.19
2017-12-02T10:03:12.318Z,4.21
2017-12-02T10:05:41.480Z,4.29
2017-12-02T10:08:10.296Z,4.26
2017-12-02T10:10:39.836Z,4.27
2017-12-02T10:13:08.216Z,4.29
2017-12-02T10:15:36.604Z,4.24
2017-12-02T10:18:05.004Z,4.14
2017-12-02T10:20:34.164Z,4.16
2017-12-02T10:23:02.548Z,4.18
2017-12-02T10:25:30.921Z,4.27
2017-12-02T10:27:59.328Z,4.27
2017-12-02T10:30:27.732Z,4.26
2017-12-02T10:32:56.560Z,4.29
2017-12-02T10:35:24.908Z,4.35
2017-12-02T10:37:53.304Z,4.41
2017-12-02T10:40:22.440Z,4.53
2017-12-02T10:42:50.920Z,4.61
2017-12-02T10:45:19.396Z,4.54
2017-12-02T10:47:48.514Z,4.58
2017-12-02T10:50:16.956Z,4.70
2017-12-02T10:52:45.368Z,4.72
2017-12-02T10:55:14.205Z,4.81
2017-12-02T10:57:42.676Z,4.80
2017-12-02T11:00:11.116Z,4.69
2017-12-02T11:02:40.227Z,4.78
2017-12-02T11:05:08.640Z,4.83
2017-12-02T11:07:37.025Z,4.89
2017-12-02T11:10:05.507Z,5.04
2017-12-02T11:12:33.865Z,5.17
2017-12-02T11:15:02.596Z,5.15
2017-12-02T11:17:31.775Z,5.14
2017-12-02T11:20:00.125Z,5.23
2017-12-02T11:22:28.476Z,5.07
2017-12-02T11:24:57.656Z,5.08
2017-12-02T11:27:26.035Z,5.10
2017-12-02T11:29:54.452Z,5.13
2017-12-02T11:32:22.888Z,5.20
2017-12-02T11:34:52.043Z,5.00
2017-12-02T11:37:20.384Z,5.21
2017-12-02T11:39:49.536Z,5.24
2017-12-02T11:42:17.963Z,5.16
2017-12-02T11:44:47.127Z,5.19
2017-12-02T11:47:17.051Z,5.04
2017-12-02T11:49:46.172Z,4.91
2017-12-02T11:52:14.952Z,4.85
2017-12-02T11:54:43.295Z,4.83
2017-12-02T11:57:11.734Z,4.78
2017-12-02T11:59:40.947Z,4.78
2017-12-02T12:02:10.164Z,4.76
2017-12-02T12:04:38.535Z,4.59
2017-12-02T12:07:08.039Z,4.51
2017-12-02T12:09:38.680Z,4.44
2017-12-02T12:12:07.177Z,4.19
2017-12-02T12:14:41.514Z,4.40
2017-12-02T12:17:10.679Z,4.49
2017-12-02T12:19:39.072Z,4.58
2017-12-02T12:22:11.602Z,4.51
2017-12-02T12:24:43.571Z,4.67
2017-12-02T12:27:12.866Z,4.77
2017-12-02T12:29:42.595Z,4.82
2017-12-02T12:32:13.019Z,4.82
2017-12-02T12:34:45.148Z,4.89
2017-12-02T12:37:18.811Z,4.86
2017-12-02T12:39:50.015Z,4.91
2017-12-02T12:42:18.523Z,4.90
2017-12-02T12:44:46.915Z,4.91
2017-12-02T12:47:16.878Z,4.80
2017-12-02T12:49:45.306Z,4.73
2017-12-02T12:52:13.715Z,4.71
2017-12-02T12:54:42.735Z,4.66
2017-12-02T12:57:12.036Z,4.66
2017-12-02T12:59:42.678Z,4.68
2017-12-02T13:02:11.039Z,4.69
2017-12-02T13:04:40.223Z,4.61
2017-12-02T13:07:08.751Z,4.60
2017-12-02T13:09:39.305Z,4.68
2017-12-02T13:12:09.183Z,4.74
2017-12-02T13:14:38.023Z,4.86
2017-12-02T13:17:06.795Z,4.94
2017-12-02T13:19:35.604Z,5.03
2017-12-02T13:22:05.375Z,5.18
2017-12-02T13:24:33.783Z,5.26
2017-12-02T13:27:02.543Z,5.17
2017-12-02T13:29:31.687Z,5.19
2017-12-02T13:32:00.095Z,4.94
2017-12-02T13:34:28.503Z,4.92
2017-12-02T13:36:58.051Z,4.78
2017-12-02T13:39:27.355Z,4.69
2017-12-02T13:41:58.339Z,4.71
2017-12-02T13:44:31.687Z,4.71
2017-12-02T13:47:00.095Z,4.69
2017-12-02T13:49:29.252Z,4.77
2017-12-02T13:51:58.420Z,4.70
2017-12-02T13:54:27.937Z,4.70
2017-12-02T13:56:57.075Z,4.67
2017-12-02T13:59:25.447Z,4.57
2017-12-02T14:01:53.818Z,4.46
2017-12-02T14:04:22.226Z,4.44
2017-12-02T14:06:53.122Z,4.39
2017-12-02T14:09:23.942Z,4.39
2017-12-02T14:11:53.382Z,4.36
2017-12-02T14:14:26.726Z,4.33
2017-12-02T14:16:55.910Z,4.25
2017-12-02T14:19:33.539Z,4.27
2017-12-02T14:22:03.459Z,4.23
2017-12-02T14:24:37.530Z,4.20
2017-12-02T14:27:06.003Z,4.17
2017-12-02T14:29:35.156Z,4.17
2017-12-02T14:32:04.913Z,4.11
2017-12-02T14:34:37.566Z,4.01
2017-12-02T14:37:05.950Z,4.03
2017-12-02T14:39:36.646Z,4.08
2017-12-02T14:42:06.242Z,4.20
2017-12-02T14:44:40.678Z,4.26
2017-12-02T14:47:09.145Z,4.18
2017-12-02T14:49:37.710Z,4.10
2017-12-02T14:52:07.438Z,4.05
2017-12-02T14:58:35.974Z,3.75
2017-12-02T15:01:06.254Z,3.72
2017-12-02T15:03:41.354Z,3.52
2017-12-02T15:06:09.775Z,3.47
2017-12-02T15:08:39.018Z,3.40
2017-12-02T15:11:18.858Z,3.41
2017-12-02T15:13:48.069Z,3.23
2017-12-02T15:16:17.646Z,3.24
2017-12-02T15:18:46.269Z,3.30
2017-12-02T15:21:16.108Z,3.26
2017-12-02T15:23:45.337Z,3.32
2017-12-02T15:26:15.166Z,3.33
2017-12-02T15:28:43.570Z,3.38
2017-12-02T15:31:12.810Z,3.40
2017-12-02T15:33:46.609Z,3.39
2017-12-02T15:36:16.721Z,3.40
2017-12-02T15:38:46.630Z,3.41
2017-12-02T15:41:17.106Z,3.41
2017-12-02T15:43:49.206Z,3.33
2017-12-02T15:46:17.639Z,3.21
2017-12-02T15:48:45.997Z,3.15
2017-12-02T15:51:15.109Z,3.19
2017-12-02T15:53:43.707Z,3.03
2017-12-02T15:56:12.974Z,2.96
2017-12-02T15:58:42.705Z,2.95
2017-12-02T16:01:12.218Z,2.87
2017-12-02T16:03:40.717Z,2.84
2017-12-02T16:06:13.881Z,2.82
2017-12-02T16:08:45.645Z,2.87
2017-12-02T16:11:18.101Z,2.99
2017-12-02T16:13:46.900Z,2.98
2017-12-02T16:16:17.785Z,2.99
2017-12-02T16:18:46.333Z,2.99
2017-12-02T16:21:17.753Z,2.90
2017-12-02T16:23:47.694Z,2.84
2017-12-02T16:26:18.938Z,2.92
2017-12-02T16:28:47.371Z,2.92
2017-12-02T16:31:16.665Z,2.93
2017-12-02T16:33:45.473Z,2.93
2017-12-02T16:36:15.903Z,2.90
2017-12-02T16:38:45.028Z,2.90
2017-12-02T16:41:16.989Z,2.92
2017-12-02T16:43:47.789Z,2.95
2017-12-02T16:46:16.729Z,2.88
2017-12-02T16:48:45.102Z,2.91
2017-12-02T16:51:13.621Z,2.94
2017-12-02T16:53:42.433Z,2.91
2017-12-02T16:56:11.769Z,2.85
2017-12-02T16:58:40.202Z,2.90
2017-12-02T17:01:09.429Z,2.95
2017-12-02T17:03:37.897Z,2.98
2017-12-02T17:06:07.088Z,2.97
2017-12-02T17:08:36.416Z,2.95
2017-12-02T17:11:04.973Z,2.96
2017-12-02T17:13:34.829Z,3.04
2017-12-02T17:16:04.057Z,3.03
2017-12-02T17:18:33.181Z,3.02
2017-12-02T17:21:01.624Z,2.99
2017-12-02T17:23:30.009Z,3.04
2017-12-02T17:25:58.433Z,3.00
2017-12-02T17:28:28.092Z,2.96
2017-12-02T17:30:57.436Z,2.89
2017-12-02T17:33:26.616Z,2.78
2017-12-02T17:35:55.806Z,2.74
2017-12-02T17:38:24.746Z,2.69
2017-12-02T17:40:53.270Z,2.63
2017-12-02T17:43:21.692Z,2.53
2017-12-02T17:45:50.317Z,2.54
2017-12-02T17:48:19.722Z,2.49
2017-12-02T17:50:48.100Z,2.46
2017-12-02T17:53:17.282Z,2.46
2017-12-02T17:55:45.764Z,2.45
2017-12-02T17:58:21.534Z,2.42
2017-12-02T18:00:50.046Z,2.37
2017-12-02T18:03:19.920Z,2.33
2017-12-02T18:05:49.716Z,2.26
2017-12-02T18:08:18.992Z,2.25
2017-12-02T18:10:47.378Z,2.25
2017-12-02T18:13:16.202Z,2.28
2017-12-02T18:15:44.577Z,2.36
2017-12-02T18:18:13.326Z,2.45
2017-12-02T18:20:42.466Z,2.55
2017-12-02T18:23:11.268Z,2.63
2017-12-02T18:25:40.062Z,2.72
2017-12-02T18:28:08.848Z,2.74
2017-12-02T18:30:38.188Z,2.69
2017-12-02T18:33:06.612Z,2.67
2017-12-02T18:35:34.972Z,2.64
2017-12-02T18:38:03.484Z,2.59
2017-12-02T18:40:32.648Z,2.54
2017-12-02T18:43:01.038Z,2.45
2017-12-02T18:45:30.720Z,2.40
2017-12-02T18:48:00.784Z,2.43
2017-12-02T18:50:32.806Z,2.44
2017-12-02T18:53:04.748Z,2.44
2017-12-02T18:55:34.121Z,2.44
2017-12-02T18:58:02.549Z,2.46
2017-12-02T19:00:31.313Z,2.52
2017-12-02T19:02:59.681Z,2.59
2017-12-02T19:05:28.928Z,2.60
2017-12-02T19:07:58.028Z,2.56
2017-12-02T19:10:26.436Z,2.52
2017-12-02T19:12:56.293Z,2.54
2017-12-02T19:15:24.704Z,2.52
2017-12-02T19:17:54.451Z,2.40
2017-12-02T19:20:24.377Z,2.54
2017-12-02T19:22:53.565Z,2.51
2017-12-02T19:25:23.546Z,2.47
2017-12-02T19:27:52.373Z,2.42
2017-12-02T19:30:21.500Z,2.42
2017-12-02T19:32:49.868Z,2.45
2017-12-02T19:35:20.284Z,2.42
2017-12-02T19:37:49.387Z,2.35
2017-12-02T19:40:17.771Z,2.27
2017-12-02T19:42:47.513Z,2.27
2017-12-02T19:45:15.872Z,2.19
2017-12-02T19:47:45.624Z,2.26
2017-12-02T19:50:14.387Z,2.23
2017-12-02T19:52:42.742Z,2.19
2017-12-02T19:55:11.152Z,2.22
2017-12-02T19:57:40.012Z,2.24
2017-12-02T20:00:08.447Z,2.33
2017-12-02T20:02:38.219Z,2.34
2017-12-02T20:05:10.168Z,2.36
2017-12-02T20:07:38.560Z,2.39
2017-12-02T20:10:07.951Z,2.44
2017-12-02T20:12:37.691Z,2.48
2017-12-02T20:15:06.882Z,2.51
2017-12-02T20:17:36.092Z,2.55
2017-12-02T20:20:04.488Z,2.53
2017-12-02T20:22:34.432Z,2.50
2017-12-02T20:25:02.835Z,2.44
2017-12-02T20:27:32.135Z,2.44
2017-12-02T20:30:00.491Z,2.44
2017-12-02T20:32:29.612Z,2.43
2017-12-02T20:34:58.727Z,2.42
2017-12-02T20:37:28.211Z,2.41
2017-12-02T20:39:56.667Z,2.36
2017-12-02T20:42:25.802Z,2.33
2017-12-02T20:44:55.047Z,2.34
2017-12-02T20:47:23.407Z,2.35
2017-12-02T20:49:51.851Z,2.34
2017-12-02T20:52:20.671Z,2.36
2017-12-02T20:54:49.151Z,2.40
2017-12-02T20:57:17.551Z,2.36
2017-12-02T20:59:45.967Z,2.39
2017-12-02T21:02:14.451Z,2.36
2017-12-02T21:04:43.736Z,2.35
2017-12-02T21:07:12.103Z,2.37
2017-12-02T21:09:40.803Z,2.36
2017-12-02T21:12:09.175Z,2.34
2017-12-02T21:14:37.983Z,2.29
2017-12-02T21:17:06.818Z,2.35
2017-12-02T21:19:36.188Z,2.22
2017-12-02T21:22:06.106Z,2.28
2017-12-02T21:24:34.558Z,2.33
2017-12-02T21:27:02.942Z,2.39
2017-12-02T21:29:32.323Z,2.39
2017-12-02T21:32:00.683Z,2.35
2017-12-02T21:34:29.887Z,2.36
2017-12-02T21:36:58.278Z,2.28
2017-12-02T21:39:29.259Z,2.27
2017-12-02T21:41:59.371Z,2.30
2017-12-02T21:44:30.739Z,2.29
2017-12-02T21:47:00.167Z,2.32
2017-12-02T21:49:29.774Z,2.35
2017-12-02T21:51:58.172Z,2.35
2017-12-02T21:54:28.326Z,2.38
2017-12-02T21:56:57.291Z,2.37
2017-12-02T21:59:26.994Z,2.37
2017-12-02T22:01:56.086Z,2.38
2017-12-02T22:04:25.601Z,2.33
2017-12-02T22:06:55.294Z,2.28
2017-12-02T22:09:26.379Z,2.23
2017-12-02T22:15:01.722Z,2.28
2017-12-02T22:17:32.338Z,2.27
2017-12-02T22:20:06.559Z,2.27
2017-12-02T22:22:38.720Z,2.23
2017-12-02T22:25:07.255Z,2.11
2017-12-02T22:27:36.360Z,2.06
2017-12-02T22:30:07.042Z,2.08
2017-12-02T22:32:35.696Z,2.16
2017-12-02T22:35:04.044Z,2.17
2017-12-02T22:37:33.218Z,2.15
2017-12-02T22:40:01.575Z,2.15
2017-12-02T22:42:30.016Z,2.17
2017-12-02T22:44:59.499Z,2.19
2017-12-02T22:47:27.874Z,2.12
2017-12-02T22:49:56.364Z,2.11
2017-12-02T22:52:24.716Z,2.08
2017-12-02T22:54:53.122Z,2.13
2017-12-02T22:57:22.278Z,2.14
2017-12-02T22:59:50.638Z,2.13
2017-12-02T23:02:18.988Z,2.08
2017-12-02T23:04:48.057Z,2.12
2017-12-02T23:07:17.902Z,2.11
2017-12-02T23:09:46.302Z,2.10
2017-12-02T23:12:14.678Z,2.10
2017-12-02T23:14:43.462Z,2.13
2017-12-02T23:17:11.904Z,2.14
2017-12-02T23:19:41.074Z,2.16
2017-12-02T23:22:09.469Z,2.16
2017-12-02T23:24:37.866Z,2.06
2017-12-02T23:27:06.617Z,1.99
2017-12-02T23:29:34.941Z,1.95
2017-12-02T23:32:03.722Z,1.95
2017-12-02T23:34:33.193Z,1.96
2017-12-02T23:37:01.973Z,2.03
2017-12-02T23:39:30.349Z,2.03
2017-12-02T23:41:58.690Z,2.01
2017-12-02T23:44:27.017Z,1.93
2017-12-02T23:46:55.406Z,1.90
2017-12-02T23:49:23.809Z,1.89
2017-12-02T23:51:52.575Z,1.88
2017-12-02T23:54:21.740Z,1.86
2017-12-02T23:56:50.913Z,1.94
2017-12-02T23:59:19.253Z,1.98
